sensor_id;sensor_type;location;lat;lon;timestamp;P1;durP1;ratioP1;P2;durP2;ratioP2
81150;SDS011;70629;-26.026;27.976;2024-01-27T00:00:36;13.88;;;11.65;;
81150;SDS011;70629;-26.026;27.976;2024-01-27T00:01:16;15.80;;;11.18;;
81150;SDS011;70629;-26.026;27.976;2024-01-27T00:01:56;16.75;;;11.20;;
81150;SDS011;70629;-26.026;27.976;2024-01-27T00:02:36;18.05;;;11.60;;
81150;SDS011;70629;-26.026;27.976;2024-01-27T00:03:16;15.48;;;11.65;;
81150;SDS011;70629;-26.026;27.976;2024-01-27T00:03:55;14.32;;;11.35;;
81150;SDS011;70629;-26.026;27.976;2024-01-27T00:04:35;14.75;;;11.85;;
81150;SDS011;70629;-26.026;27.976;2024-01-27T00:05:16;16.73;;;11.35;;
81150;SDS011;70629;-26.026;27.976;2024-01-27T00:05:56;14.80;;;10.82;;
81150;SDS011;70629;-26.026;27.976;2024-01-27T00:06:36;15.77;;;11.23;;
81150;SDS011;70629;-26.026;27.976;2024-01-27T00:07:16;15.27;;;10.95;;
81150;SDS011;70629;-26.026;27.976;2024-01-27T00:07:56;15.18;;;11.65;;
81150;SDS011;70629;-26.026;27.976;2024-01-27T00:08:36;15.73;;;11.73;;
81150;SDS011;70629;-26.026;27.976;2024-01-27T00:09:15;14.27;;;11.20;;
81150;SDS011;70629;-26.026;27.976;2024-01-27T00:09:55;14.02;;;10.68;;
81150;SDS011;70629;-26.026;27.976;2024-01-27T00:10:38;14.27;;;11.27;;
81150;SDS011;70629;-26.026;27.976;2024-01-27T00:11:18;13.40;;;10.95;;
81150;SDS011;70629;-26.026;27.976;2024-01-27T00:12:02;16.17;;;11.30;;
81150;SDS011;70629;-26.026;27.976;2024-01-27T00:12:42;14.95;;;10.88;;
81150;SDS011;70629;-26.026;27.976;2024-01-27T00:13:22;16.33;;;11.73;;
81150;SDS011;70629;-26.026;27.976;2024-01-27T00:14:02;14.93;;;11.63;;
81150;SDS011;70629;-26.026;27.976;2024-01-27T00:14:41;14.30;;;11.23;;
81150;SDS011;70629;-26.026;27.976;2024-01-27T00:15:22;16.38;;;12.75;;
81150;SDS011;70629;-26.026;27.976;2024-01-27T00:16:02;15.05;;;11.60;;
81150;SDS011;70629;-26.026;27.976;2024-01-27T00:16:43;17.55;;;11.00;;
81150;SDS011;70629;-26.026;27.976;2024-01-27T00:17:23;14.10;;;11.43;;
81150;SDS011;70629;-26.026;27.976;2024-01-27T00:18:04;13.52;;;11.23;;
81150;SDS011;70629;-26.026;27.976;2024-01-27T00:18:44;17.10;;;12.65;;
81150;SDS011;70629;-26.026;27.976;2024-01-27T00:19:25;18.77;;;12.18;;
81150;SDS011;70629;-26.026;27.976;2024-01-27T00:20:05;14.27;;;11.68;;
81150;SDS011;70629;-26.026;27.976;2024-01-27T00:20:45;16.52;;;11.05;;
81150;SDS011;70629;-26.026;27.976;2024-01-27T00:21:25;14.90;;;12.05;;
81150;SDS011;70629;-26.026;27.976;2024-01-27T00:22:06;15.88;;;11.55;;
81150;SDS011;70629;-26.026;27.976;2024-01-27T00:22:46;16.80;;;11.85;;
81150;SDS011;70629;-26.026;27.976;2024-01-27T00:23:26;13.63;;;11.48;;
81150;SDS011;70629;-26.026;27.976;2024-01-27T00:24:06;15.45;;;11.82;;
81150;SDS011;70629;-26.026;27.976;2024-01-27T00:24:46;14.95;;;12.25;;
81150;SDS011;70629;-26.026;27.976;2024-01-27T00:25:26;14.65;;;11.93;;
81150;SDS011;70629;-26.026;27.976;2024-01-27T00:26:06;16.45;;;11.85;;
81150;SDS011;70629;-26.026;27.976;2024-01-27T00:26:45;14.85;;;12.70;;
81150;SDS011;70629;-26.026;27.976;2024-01-27T00:27:26;13.68;;;11.85;;
81150;SDS011;70629;-26.026;27.976;2024-01-27T00:28:06;16.85;;;12.07;;
81150;SDS011;70629;-26.026;27.976;2024-01-27T00:28:46;16.52;;;12.00;;
81150;SDS011;70629;-26.026;27.976;2024-01-27T00:29:26;15.32;;;12.05;;
81150;SDS011;70629;-26.026;27.976;2024-01-27T00:30:06;14.93;;;11.50;;
81150;SDS011;70629;-26.026;27.976;2024-01-27T00:30:46;16.00;;;11.85;;
81150;SDS011;70629;-26.026;27.976;2024-01-27T00:31:26;17.23;;;11.15;;
81150;SDS011;70629;-26.026;27.976;2024-01-27T00:32:05;15.68;;;10.90;;
81150;SDS011;70629;-26.026;27.976;2024-01-27T00:32:46;16.63;;;10.93;;
81150;SDS011;70629;-26.026;27.976;2024-01-27T00:33:26;15.18;;;12.02;;
81150;SDS011;70629;-26.026;27.976;2024-01-27T00:34:06;15.55;;;11.43;;
81150;SDS011;70629;-26.026;27.976;2024-01-27T00:34:45;13.63;;;11.35;;
81150;SDS011;70629;-26.026;27.976;2024-01-27T00:35:25;14.95;;;11.75;;
81150;SDS011;70629;-26.026;27.976;2024-01-27T00:36:06;14.15;;;11.43;;
81150;SDS011;70629;-26.026;27.976;2024-01-27T00:36:46;15.73;;;12.13;;
81150;SDS011;70629;-26.026;27.976;2024-01-27T00:37:27;13.82;;;11.27;;
81150;SDS011;70629;-26.026;27.976;2024-01-27T00:38:08;17.80;;;11.93;;
81150;SDS011;70629;-26.026;27.976;2024-01-27T00:38:47;14.80;;;12.27;;
81150;SDS011;70629;-26.026;27.976;2024-01-27T00:39:27;15.15;;;11.80;;
81150;SDS011;70629;-26.026;27.976;2024-01-27T00:40:08;13.10;;;11.23;;
81150;SDS011;70629;-26.026;27.976;2024-01-27T00:40:51;15.93;;;11.50;;
81150;SDS011;70629;-26.026;27.976;2024-01-27T00:41:32;14.35;;;12.10;;
81150;SDS011;70629;-26.026;27.976;2024-01-27T00:42:11;15.10;;;11.25;;
81150;SDS011;70629;-26.026;27.976;2024-01-27T00:42:51;14.65;;;10.73;;
81150;SDS011;70629;-26.026;27.976;2024-01-27T00:43:31;14.35;;;11.55;;
81150;SDS011;70629;-26.026;27.976;2024-01-27T00:44:11;13.20;;;11.20;;
81150;SDS011;70629;-26.026;27.976;2024-01-27T00:44:51;12.35;;;11.00;;
81150;SDS011;70629;-26.026;27.976;2024-01-27T00:45:31;14.38;;;11.38;;
81150;SDS011;70629;-26.026;27.976;2024-01-27T00:46:11;14.35;;;11.00;;
81150;SDS011;70629;-26.026;27.976;2024-01-27T00:46:51;13.98;;;10.95;;
81150;SDS011;70629;-26.026;27.976;2024-01-27T00:47:30;16.73;;;10.95;;
81150;SDS011;70629;-26.026;27.976;2024-01-27T00:48:10;15.85;;;11.27;;
81150;SDS011;70629;-26.026;27.976;2024-01-27T00:48:51;14.20;;;10.52;;
81150;SDS011;70629;-26.026;27.976;2024-01-27T00:49:31;16.08;;;12.18;;
81150;SDS011;70629;-26.026;27.976;2024-01-27T00:50:11;13.40;;;11.68;;
81150;SDS011;70629;-26.026;27.976;2024-01-27T00:50:51;15.55;;;12.15;;
81150;SDS011;70629;-26.026;27.976;2024-01-27T00:51:31;13.63;;;11.23;;
81150;SDS011;70629;-26.026;27.976;2024-01-27T00:52:11;14.50;;;11.60;;
81150;SDS011;70629;-26.026;27.976;2024-01-27T00:52:51;13.25;;;11.57;;
81150;SDS011;70629;-26.026;27.976;2024-01-27T00:53:35;14.63;;;11.35;;
81150;SDS011;70629;-26.026;27.976;2024-01-27T00:54:16;13.15;;;10.73;;
81150;SDS011;70629;-26.026;27.976;2024-01-27T00:54:56;14.07;;;10.90;;
81150;SDS011;70629;-26.026;27.976;2024-01-27T00:55:35;15.02;;;10.57;;
81150;SDS011;70629;-26.026;27.976;2024-01-27T00:56:15;16.83;;;11.68;;
81150;SDS011;70629;-26.026;27.976;2024-01-27T00:56:55;13.13;;;10.60;;
81150;SDS011;70629;-26.026;27.976;2024-01-27T00:57:38;13.43;;;11.15;;
81150;SDS011;70629;-26.026;27.976;2024-01-27T00:58:17;15.20;;;11.38;;
81150;SDS011;70629;-26.026;27.976;2024-01-27T00:58:57;13.35;;;11.13;;
81150;SDS011;70629;-26.026;27.976;2024-01-27T00:59:37;12.70;;;10.75;;
81150;SDS011;70629;-26.026;27.976;2024-01-27T01:00:17;14.15;;;10.75;;
81150;SDS011;70629;-26.026;27.976;2024-01-27T01:00:57;16.40;;;10.52;;
81150;SDS011;70629;-26.026;27.976;2024-01-27T01:01:37;16.40;;;11.15;;
81150;SDS011;70629;-26.026;27.976;2024-01-27T01:02:17;13.05;;;11.02;;
81150;SDS011;70629;-26.026;27.976;2024-01-27T01:02:57;13.70;;;10.80;;
81150;SDS011;70629;-26.026;27.976;2024-01-27T01:03:37;15.52;;;10.48;;
81150;SDS011;70629;-26.026;27.976;2024-01-27T01:04:16;13.70;;;10.98;;
81150;SDS011;70629;-26.026;27.976;2024-01-27T01:04:57;14.68;;;10.20;;
81150;SDS011;70629;-26.026;27.976;2024-01-27T01:05:37;14.15;;;10.40;;
81150;SDS011;70629;-26.026;27.976;2024-01-27T01:06:16;14.15;;;10.70;;
81150;SDS011;70629;-26.026;27.976;2024-01-27T01:06:56;13.00;;;10.38;;
81150;SDS011;70629;-26.026;27.976;2024-01-27T01:07:36;13.60;;;10.98;;
81150;SDS011;70629;-26.026;27.976;2024-01-27T01:08:16;13.80;;;11.20;;
81150;SDS011;70629;-26.026;27.976;2024-01-27T01:08:56;14.27;;;11.50;;
81150;SDS011;70629;-26.026;27.976;2024-01-27T01:09:36;11.85;;;10.02;;
81150;SDS011;70629;-26.026;27.976;2024-01-27T01:10:16;14.88;;;12.10;;
81150;SDS011;70629;-26.026;27.976;2024-01-27T01:10:56;13.95;;;10.55;;
81150;SDS011;70629;-26.026;27.976;2024-01-27T01:11:36;17.27;;;10.80;;
81150;SDS011;70629;-26.026;27.976;2024-01-27T01:12:17;12.00;;;10.15;;
81150;SDS011;70629;-26.026;27.976;2024-01-27T01:12:57;14.18;;;11.07;;
81150;SDS011;70629;-26.026;27.976;2024-01-27T01:13:37;15.02;;;10.85;;
81150;SDS011;70629;-26.026;27.976;2024-01-27T01:14:17;12.48;;;9.82;;
81150;SDS011;70629;-26.026;27.976;2024-01-27T01:14:56;14.98;;;11.10;;
81150;SDS011;70629;-26.026;27.976;2024-01-27T01:15:37;15.05;;;11.13;;
81150;SDS011;70629;-26.026;27.976;2024-01-27T01:16:18;13.80;;;10.52;;
81150;SDS011;70629;-26.026;27.976;2024-01-27T01:16:58;15.85;;;10.43;;
81150;SDS011;70629;-26.026;27.976;2024-01-27T01:17:38;15.57;;;10.73;;
81150;SDS011;70629;-26.026;27.976;2024-01-27T01:18:18;15.25;;;10.30;;
81150;SDS011;70629;-26.026;27.976;2024-01-27T01:18:58;14.88;;;11.10;;
81150;SDS011;70629;-26.026;27.976;2024-01-27T01:19:38;15.25;;;11.35;;
81150;SDS011;70629;-26.026;27.976;2024-01-27T01:20:19;15.95;;;11.02;;
81150;SDS011;70629;-26.026;27.976;2024-01-27T01:20:59;15.00;;;11.75;;
81150;SDS011;70629;-26.026;27.976;2024-01-27T01:21:39;15.80;;;11.23;;
81150;SDS011;70629;-26.026;27.976;2024-01-27T01:22:19;14.05;;;11.43;;
81150;SDS011;70629;-26.026;27.976;2024-01-27T01:22:59;15.90;;;12.30;;
81150;SDS011;70629;-26.026;27.976;2024-01-27T01:23:39;18.20;;;11.90;;
81150;SDS011;70629;-26.026;27.976;2024-01-27T01:24:19;16.00;;;11.45;;
81150;SDS011;70629;-26.026;27.976;2024-01-27T01:24:59;17.30;;;11.98;;
81150;SDS011;70629;-26.026;27.976;2024-01-27T01:25:39;14.57;;;11.35;;
81150;SDS011;70629;-26.026;27.976;2024-01-27T01:26:19;14.10;;;10.98;;
81150;SDS011;70629;-26.026;27.976;2024-01-27T01:26:59;13.25;;;10.63;;
81150;SDS011;70629;-26.026;27.976;2024-01-27T01:27:39;15.43;;;10.70;;
81150;SDS011;70629;-26.026;27.976;2024-01-27T01:28:19;12.55;;;10.40;;
81150;SDS011;70629;-26.026;27.976;2024-01-27T01:28:59;14.07;;;10.55;;
81150;SDS011;70629;-26.026;27.976;2024-01-27T01:29:38;14.57;;;11.68;;
81150;SDS011;70629;-26.026;27.976;2024-01-27T01:30:18;13.60;;;11.23;;
81150;SDS011;70629;-26.026;27.976;2024-01-27T01:30:59;14.77;;;11.02;;
81150;SDS011;70629;-26.026;27.976;2024-01-27T01:31:41;14.27;;;10.80;;
81150;SDS011;70629;-26.026;27.976;2024-01-27T01:32:22;16.27;;;11.85;;
81150;SDS011;70629;-26.026;27.976;2024-01-27T01:33:02;17.35;;;11.75;;
81150;SDS011;70629;-26.026;27.976;2024-01-27T01:33:43;15.10;;;11.20;;
81150;SDS011;70629;-26.026;27.976;2024-01-27T01:34:23;15.27;;;11.20;;
81150;SDS011;70629;-26.026;27.976;2024-01-27T01:35:03;14.25;;;11.55;;
81150;SDS011;70629;-26.026;27.976;2024-01-27T01:35:43;17.10;;;12.80;;
81150;SDS011;70629;-26.026;27.976;2024-01-27T01:36:23;15.32;;;11.85;;
81150;SDS011;70629;-26.026;27.976;2024-01-27T01:37:04;17.75;;;13.48;;
81150;SDS011;70629;-26.026;27.976;2024-01-27T01:37:44;16.88;;;12.52;;
81150;SDS011;70629;-26.026;27.976;2024-01-27T01:38:23;17.77;;;12.73;;
81150;SDS011;70629;-26.026;27.976;2024-01-27T01:39:03;17.88;;;14.15;;
81150;SDS011;70629;-26.026;27.976;2024-01-27T01:39:43;18.25;;;13.88;;
81150;SDS011;70629;-26.026;27.976;2024-01-27T01:40:23;19.67;;;12.85;;
81150;SDS011;70629;-26.026;27.976;2024-01-27T01:41:02;16.75;;;13.00;;
81150;SDS011;70629;-26.026;27.976;2024-01-27T01:41:42;15.05;;;12.85;;
81150;SDS011;70629;-26.026;27.976;2024-01-27T01:42:22;17.55;;;12.63;;
81150;SDS011;70629;-26.026;27.976;2024-01-27T01:43:08;26.02;;;17.63;;
81150;SDS011;70629;-26.026;27.976;2024-01-27T01:43:51;24.85;;;16.63;;
81150;SDS011;70629;-26.026;27.976;2024-01-27T01:44:30;29.52;;;19.83;;
81150;SDS011;70629;-26.026;27.976;2024-01-27T01:45:10;29.80;;;18.80;;
81150;SDS011;70629;-26.026;27.976;2024-01-27T01:45:52;25.55;;;19.27;;
81150;SDS011;70629;-26.026;27.976;2024-01-27T01:46:34;28.10;;;18.45;;
81150;SDS011;70629;-26.026;27.976;2024-01-27T01:47:14;29.52;;;18.00;;
81150;SDS011;70629;-26.026;27.976;2024-01-27T01:47:55;33.08;;;19.83;;
81150;SDS011;70629;-26.026;27.976;2024-01-27T01:48:35;30.00;;;20.88;;
81150;SDS011;70629;-26.026;27.976;2024-01-27T01:49:15;32.65;;;20.67;;
81150;SDS011;70629;-26.026;27.976;2024-01-27T01:49:55;25.75;;;18.58;;
81150;SDS011;70629;-26.026;27.976;2024-01-27T01:50:36;28.55;;;19.13;;
81150;SDS011;70629;-26.026;27.976;2024-01-27T01:51:16;25.52;;;18.10;;
81150;SDS011;70629;-26.026;27.976;2024-01-27T01:51:56;26.08;;;18.27;;
81150;SDS011;70629;-26.026;27.976;2024-01-27T01:52:36;28.08;;;18.45;;
81150;SDS011;70629;-26.026;27.976;2024-01-27T01:53:18;27.05;;;17.38;;
81150;SDS011;70629;-26.026;27.976;2024-01-27T01:53:58;23.85;;;16.80;;
81150;SDS011;70629;-26.026;27.976;2024-01-27T01:54:39;28.02;;;19.00;;
81150;SDS011;70629;-26.026;27.976;2024-01-27T01:55:18;27.35;;;17.63;;
81150;SDS011;70629;-26.026;27.976;2024-01-27T01:55:58;32.40;;;20.90;;
81150;SDS011;70629;-26.026;27.976;2024-01-27T01:56:38;32.15;;;22.48;;
81150;SDS011;70629;-26.026;27.976;2024-01-27T01:57:19;28.83;;;19.92;;
81150;SDS011;70629;-26.026;27.976;2024-01-27T01:57:58;28.50;;;20.17;;
81150;SDS011;70629;-26.026;27.976;2024-01-27T01:58:39;26.83;;;18.83;;
81150;SDS011;70629;-26.026;27.976;2024-01-27T01:59:19;29.83;;;20.00;;
81150;SDS011;70629;-26.026;27.976;2024-01-27T01:59:59;31.95;;;19.95;;
81150;SDS011;70629;-26.026;27.976;2024-01-27T02:00:48;28.67;;;19.58;;
81150;SDS011;70629;-26.026;27.976;2024-01-27T02:01:28;27.80;;;19.08;;
81150;SDS011;70629;-26.026;27.976;2024-01-27T02:02:08;27.33;;;19.13;;
81150;SDS011;70629;-26.026;27.976;2024-01-27T02:02:48;25.33;;;18.88;;
81150;SDS011;70629;-26.026;27.976;2024-01-27T02:03:28;27.05;;;18.88;;
81150;SDS011;70629;-26.026;27.976;2024-01-27T02:04:09;26.48;;;19.27;;
81150;SDS011;70629;-26.026;27.976;2024-01-27T02:04:49;22.10;;;17.92;;
81150;SDS011;70629;-26.026;27.976;2024-01-27T02:05:28;24.45;;;17.08;;
81150;SDS011;70629;-26.026;27.976;2024-01-27T02:06:08;23.52;;;16.98;;
81150;SDS011;70629;-26.026;27.976;2024-01-27T02:06:48;26.48;;;19.42;;
81150;SDS011;70629;-26.026;27.976;2024-01-27T02:07:28;27.73;;;18.13;;
81150;SDS011;70629;-26.026;27.976;2024-01-27T02:08:08;25.85;;;17.38;;
81150;SDS011;70629;-26.026;27.976;2024-01-27T02:08:48;26.30;;;17.60;;
81150;SDS011;70629;-26.026;27.976;2024-01-27T02:09:29;26.58;;;16.77;;
81150;SDS011;70629;-26.026;27.976;2024-01-27T02:10:13;24.25;;;16.63;;
81150;SDS011;70629;-26.026;27.976;2024-01-27T02:10:57;21.55;;;14.77;;
81150;SDS011;70629;-26.026;27.976;2024-01-27T02:11:37;20.42;;;15.75;;
81150;SDS011;70629;-26.026;27.976;2024-01-27T02:12:16;24.50;;;16.70;;
81150;SDS011;70629;-26.026;27.976;2024-01-27T02:12:56;21.05;;;14.90;;
81150;SDS011;70629;-26.026;27.976;2024-01-27T02:13:36;19.75;;;15.90;;
81150;SDS011;70629;-26.026;27.976;2024-01-27T02:14:16;22.17;;;16.00;;
81150;SDS011;70629;-26.026;27.976;2024-01-27T02:14:57;26.70;;;18.70;;
81150;SDS011;70629;-26.026;27.976;2024-01-27T02:15:37;30.52;;;19.25;;
81150;SDS011;70629;-26.026;27.976;2024-01-27T02:16:16;26.55;;;19.40;;
81150;SDS011;70629;-26.026;27.976;2024-01-27T02:17:00;30.58;;;22.10;;
81150;SDS011;70629;-26.026;27.976;2024-01-27T02:17:41;33.47;;;22.60;;
81150;SDS011;70629;-26.026;27.976;2024-01-27T02:18:21;38.72;;;26.92;;
81150;SDS011;70629;-26.026;27.976;2024-01-27T02:19:01;42.67;;;27.13;;
81150;SDS011;70629;-26.026;27.976;2024-01-27T02:19:41;41.78;;;30.42;;
81150;SDS011;70629;-26.026;27.976;2024-01-27T02:20:21;40.63;;;29.90;;
81150;SDS011;70629;-26.026;27.976;2024-01-27T02:21:01;38.35;;;26.35;;
81150;SDS011;70629;-26.026;27.976;2024-01-27T02:21:41;39.72;;;28.40;;
81150;SDS011;70629;-26.026;27.976;2024-01-27T02:22:21;35.97;;;24.63;;
81150;SDS011;70629;-26.026;27.976;2024-01-27T02:23:01;33.30;;;26.10;;
81150;SDS011;70629;-26.026;27.976;2024-01-27T02:23:43;34.17;;;23.48;;
81150;SDS011;70629;-26.026;27.976;2024-01-27T02:24:23;38.58;;;26.27;;
81150;SDS011;70629;-26.026;27.976;2024-01-27T02:25:03;34.40;;;24.65;;
81150;SDS011;70629;-26.026;27.976;2024-01-27T02:25:44;34.88;;;23.92;;
81150;SDS011;70629;-26.026;27.976;2024-01-27T02:26:23;36.17;;;25.13;;
81150;SDS011;70629;-26.026;27.976;2024-01-27T02:27:03;39.42;;;25.23;;
81150;SDS011;70629;-26.026;27.976;2024-01-27T02:27:43;38.47;;;26.33;;
81150;SDS011;70629;-26.026;27.976;2024-01-27T02:28:24;40.70;;;26.85;;
81150;SDS011;70629;-26.026;27.976;2024-01-27T02:29:03;41.65;;;25.90;;
81150;SDS011;70629;-26.026;27.976;2024-01-27T02:29:43;39.45;;;25.05;;
81150;SDS011;70629;-26.026;27.976;2024-01-27T02:30:23;38.17;;;26.27;;
81150;SDS011;70629;-26.026;27.976;2024-01-27T02:31:03;39.92;;;25.80;;
81150;SDS011;70629;-26.026;27.976;2024-01-27T02:31:43;38.13;;;27.20;;
81150;SDS011;70629;-26.026;27.976;2024-01-27T02:32:23;32.20;;;23.95;;
81150;SDS011;70629;-26.026;27.976;2024-01-27T02:33:03;35.10;;;25.88;;
81150;SDS011;70629;-26.026;27.976;2024-01-27T02:33:43;33.60;;;24.50;;
81150;SDS011;70629;-26.026;27.976;2024-01-27T02:34:23;36.38;;;23.75;;
81150;SDS011;70629;-26.026;27.976;2024-01-27T02:35:03;35.30;;;23.00;;
81150;SDS011;70629;-26.026;27.976;2024-01-27T02:35:43;30.45;;;19.52;;
81150;SDS011;70629;-26.026;27.976;2024-01-27T02:36:25;28.00;;;19.02;;
81150;SDS011;70629;-26.026;27.976;2024-01-27T02:37:05;27.95;;;18.05;;
81150;SDS011;70629;-26.026;27.976;2024-01-27T02:37:45;22.25;;;15.98;;
81150;SDS011;70629;-26.026;27.976;2024-01-27T02:38:24;23.08;;;17.10;;
81150;SDS011;70629;-26.026;27.976;2024-01-27T02:39:04;21.63;;;17.02;;
81150;SDS011;70629;-26.026;27.976;2024-01-27T02:39:44;22.30;;;16.65;;
81150;SDS011;70629;-26.026;27.976;2024-01-27T02:40:24;26.83;;;17.48;;
81150;SDS011;70629;-26.026;27.976;2024-01-27T02:41:04;24.55;;;17.00;;
81150;SDS011;70629;-26.026;27.976;2024-01-27T02:41:44;21.98;;;15.48;;
81150;SDS011;70629;-26.026;27.976;2024-01-27T02:42:24;20.20;;;17.48;;
81150;SDS011;70629;-26.026;27.976;2024-01-27T02:43:04;25.85;;;16.50;;
81150;SDS011;70629;-26.026;27.976;2024-01-27T02:43:44;22.73;;;15.10;;
81150;SDS011;70629;-26.026;27.976;2024-01-27T02:44:24;17.15;;;14.02;;
81150;SDS011;70629;-26.026;27.976;2024-01-27T02:45:04;22.20;;;14.75;;
81150;SDS011;70629;-26.026;27.976;2024-01-27T02:45:44;20.05;;;14.52;;
81150;SDS011;70629;-26.026;27.976;2024-01-27T02:46:24;19.90;;;14.45;;
81150;SDS011;70629;-26.026;27.976;2024-01-27T02:47:04;19.23;;;14.18;;
81150;SDS011;70629;-26.026;27.976;2024-01-27T02:47:44;19.33;;;13.68;;
81150;SDS011;70629;-26.026;27.976;2024-01-27T02:48:24;18.63;;;14.73;;
81150;SDS011;70629;-26.026;27.976;2024-01-27T02:49:04;19.30;;;15.10;;
81150;SDS011;70629;-26.026;27.976;2024-01-27T02:49:44;22.20;;;13.77;;
81150;SDS011;70629;-26.026;27.976;2024-01-27T02:50:24;22.65;;;15.52;;
81150;SDS011;70629;-26.026;27.976;2024-01-27T02:51:04;19.10;;;13.73;;
81150;SDS011;70629;-26.026;27.976;2024-01-27T02:51:44;20.15;;;13.38;;
81150;SDS011;70629;-26.026;27.976;2024-01-27T02:52:24;18.40;;;13.20;;
81150;SDS011;70629;-26.026;27.976;2024-01-27T02:53:04;21.33;;;14.27;;
81150;SDS011;70629;-26.026;27.976;2024-01-27T02:53:44;19.13;;;14.80;;
81150;SDS011;70629;-26.026;27.976;2024-01-27T02:54:24;19.35;;;14.13;;
81150;SDS011;70629;-26.026;27.976;2024-01-27T02:55:04;15.98;;;13.32;;
81150;SDS011;70629;-26.026;27.976;2024-01-27T02:55:44;18.13;;;12.65;;
81150;SDS011;70629;-26.026;27.976;2024-01-27T02:56:24;16.23;;;13.00;;
81150;SDS011;70629;-26.026;27.976;2024-01-27T02:57:04;16.83;;;12.38;;
81150;SDS011;70629;-26.026;27.976;2024-01-27T02:57:44;18.00;;;13.27;;
81150;SDS011;70629;-26.026;27.976;2024-01-27T02:58:24;15.73;;;12.70;;
81150;SDS011;70629;-26.026;27.976;2024-01-27T02:59:04;16.35;;;12.32;;
81150;SDS011;70629;-26.026;27.976;2024-01-27T02:59:46;16.80;;;12.68;;
81150;SDS011;70629;-26.026;27.976;2024-01-27T03:00:26;16.58;;;13.52;;
81150;SDS011;70629;-26.026;27.976;2024-01-27T03:01:06;15.60;;;12.32;;
81150;SDS011;70629;-26.026;27.976;2024-01-27T03:01:46;17.63;;;12.57;;
81150;SDS011;70629;-26.026;27.976;2024-01-27T03:02:26;16.92;;;13.07;;
81150;SDS011;70629;-26.026;27.976;2024-01-27T03:03:06;18.05;;;12.13;;
81150;SDS011;70629;-26.026;27.976;2024-01-27T03:03:46;16.60;;;12.45;;
81150;SDS011;70629;-26.026;27.976;2024-01-27T03:04:26;14.15;;;11.43;;
81150;SDS011;70629;-26.026;27.976;2024-01-27T03:05:06;17.25;;;12.15;;
81150;SDS011;70629;-26.026;27.976;2024-01-27T03:05:47;17.35;;;12.52;;
81150;SDS011;70629;-26.026;27.976;2024-01-27T03:06:26;17.02;;;12.18;;
81150;SDS011;70629;-26.026;27.976;2024-01-27T03:07:06;15.68;;;11.95;;
81150;SDS011;70629;-26.026;27.976;2024-01-27T03:07:47;14.57;;;11.48;;
81150;SDS011;70629;-26.026;27.976;2024-01-27T03:08:27;16.88;;;11.88;;
81150;SDS011;70629;-26.026;27.976;2024-01-27T03:09:07;15.68;;;10.63;;
81150;SDS011;70629;-26.026;27.976;2024-01-27T03:09:47;15.60;;;11.10;;
81150;SDS011;70629;-26.026;27.976;2024-01-27T03:10:27;14.77;;;11.18;;
81150;SDS011;70629;-26.026;27.976;2024-01-27T03:11:07;15.68;;;11.85;;
81150;SDS011;70629;-26.026;27.976;2024-01-27T03:11:46;14.88;;;10.88;;
81150;SDS011;70629;-26.026;27.976;2024-01-27T03:12:26;14.43;;;10.05;;
81150;SDS011;70629;-26.026;27.976;2024-01-27T03:13:06;14.70;;;10.85;;
81150;SDS011;70629;-26.026;27.976;2024-01-27T03:13:46;13.88;;;10.25;;
81150;SDS011;70629;-26.026;27.976;2024-01-27T03:14:26;12.55;;;9.45;;
81150;SDS011;70629;-26.026;27.976;2024-01-27T03:15:06;12.85;;;9.63;;
81150;SDS011;70629;-26.026;27.976;2024-01-27T03:15:46;11.93;;;9.95;;
81150;SDS011;70629;-26.026;27.976;2024-01-27T03:16:28;13.50;;;10.10;;
81150;SDS011;70629;-26.026;27.976;2024-01-27T03:17:07;11.13;;;8.70;;
81150;SDS011;70629;-26.026;27.976;2024-01-27T03:17:48;13.35;;;8.75;;
81150;SDS011;70629;-26.026;27.976;2024-01-27T03:18:28;12.77;;;9.35;;
81150;SDS011;70629;-26.026;27.976;2024-01-27T03:19:08;11.50;;;8.65;;
81150;SDS011;70629;-26.026;27.976;2024-01-27T03:19:48;14.43;;;8.70;;
81150;SDS011;70629;-26.026;27.976;2024-01-27T03:20:28;11.20;;;8.88;;
81150;SDS011;70629;-26.026;27.976;2024-01-27T03:21:09;12.57;;;10.13;;
81150;SDS011;70629;-26.026;27.976;2024-01-27T03:21:49;11.85;;;8.20;;
81150;SDS011;70629;-26.026;27.976;2024-01-27T03:22:29;11.68;;;8.32;;
81150;SDS011;70629;-26.026;27.976;2024-01-27T03:23:09;13.82;;;10.00;;
81150;SDS011;70629;-26.026;27.976;2024-01-27T03:23:49;12.88;;;8.93;;
81150;SDS011;70629;-26.026;27.976;2024-01-27T03:24:29;13.02;;;8.93;;
81150;SDS011;70629;-26.026;27.976;2024-01-27T03:25:09;10.45;;;8.18;;
81150;SDS011;70629;-26.026;27.976;2024-01-27T03:25:49;10.77;;;8.50;;
81150;SDS011;70629;-26.026;27.976;2024-01-27T03:26:31;11.90;;;8.73;;
81150;SDS011;70629;-26.026;27.976;2024-01-27T03:27:11;11.52;;;8.70;;
81150;SDS011;70629;-26.026;27.976;2024-01-27T03:27:51;11.80;;;8.88;;
81150;SDS011;70629;-26.026;27.976;2024-01-27T03:28:31;11.63;;;8.70;;
81150;SDS011;70629;-26.026;27.976;2024-01-27T03:29:11;11.82;;;8.30;;
81150;SDS011;70629;-26.026;27.976;2024-01-27T03:29:51;12.20;;;8.20;;
81150;SDS011;70629;-26.026;27.976;2024-01-27T03:30:31;11.63;;;9.32;;
81150;SDS011;70629;-26.026;27.976;2024-01-27T03:31:11;11.00;;;8.77;;
81150;SDS011;70629;-26.026;27.976;2024-01-27T03:31:51;12.65;;;9.45;;
81150;SDS011;70629;-26.026;27.976;2024-01-27T03:32:30;10.88;;;8.43;;
81150;SDS011;70629;-26.026;27.976;2024-01-27T03:33:11;11.93;;;9.43;;
81150;SDS011;70629;-26.026;27.976;2024-01-27T03:33:51;13.32;;;9.27;;
81150;SDS011;70629;-26.026;27.976;2024-01-27T03:34:31;12.73;;;8.77;;
81150;SDS011;70629;-26.026;27.976;2024-01-27T03:35:12;13.30;;;9.25;;
81150;SDS011;70629;-26.026;27.976;2024-01-27T03:35:52;12.65;;;9.23;;
81150;SDS011;70629;-26.026;27.976;2024-01-27T03:36:32;11.48;;;8.85;;
81150;SDS011;70629;-26.026;27.976;2024-01-27T03:37:12;12.90;;;10.02;;
81150;SDS011;70629;-26.026;27.976;2024-01-27T03:37:52;12.02;;;8.60;;
81150;SDS011;70629;-26.026;27.976;2024-01-27T03:38:32;10.98;;;8.30;;
81150;SDS011;70629;-26.026;27.976;2024-01-27T03:39:14;11.55;;;8.75;;
81150;SDS011;70629;-26.026;27.976;2024-01-27T03:39:54;10.65;;;8.70;;
81150;SDS011;70629;-26.026;27.976;2024-01-27T03:40:35;12.07;;;8.65;;
81150;SDS011;70629;-26.026;27.976;2024-01-27T03:41:15;12.23;;;8.70;;
81150;SDS011;70629;-26.026;27.976;2024-01-27T03:41:54;12.18;;;9.48;;
81150;SDS011;70629;-26.026;27.976;2024-01-27T03:42:34;11.10;;;8.70;;
81150;SDS011;70629;-26.026;27.976;2024-01-27T03:43:14;10.50;;;8.18;;
81150;SDS011;70629;-26.026;27.976;2024-01-27T03:43:54;10.43;;;8.45;;
81150;SDS011;70629;-26.026;27.976;2024-01-27T03:44:34;11.02;;;8.30;;
81150;SDS011;70629;-26.026;27.976;2024-01-27T03:45:14;11.88;;;8.88;;
81150;SDS011;70629;-26.026;27.976;2024-01-27T03:45:54;14.05;;;9.15;;
81150;SDS011;70629;-26.026;27.976;2024-01-27T03:46:34;13.18;;;9.93;;
81150;SDS011;70629;-26.026;27.976;2024-01-27T03:47:16;11.40;;;8.77;;
81150;SDS011;70629;-26.026;27.976;2024-01-27T03:47:56;12.00;;;8.55;;
81150;SDS011;70629;-26.026;27.976;2024-01-27T03:48:36;12.65;;;8.93;;
81150;SDS011;70629;-26.026;27.976;2024-01-27T03:49:16;12.90;;;8.73;;